Time;durP1;ratioP1;P1;durP2;ratioP2;P2;SDS_P1;SDS_P2;PMS_P1;PMS_P2;Temp;Humidity;BMP_temperature;BMP_pressure;BME280_temperature;BME280_humidity;BME280_pressure;Samples;Min_cycle;Max_cycle;Signal;HPM_P1;HPM_P2
2021/12/04 00:00:26;;;;;;;7.57;5.60;;;3.40;99.90;;;;;;5063043;28;20431;-65
2021/12/04 00:02:52;;;;;;;8.18;5.65;;;3.40;99.90;;;;;;5064147;28;20083;-63
2021/12/04 00:05:20;;;;;;;8.23;5.80;;;3.40;99.90;;;;;;5060722;28;20086;-63
2021/12/04 00:07:46;;;;;;;8.60;5.43;;;3.30;99.90;;;;;;5062965;28;20562;-63
2021/12/04 00:10:27;;;;;;;9.15;5.88;;;3.30;99.90;;;;;;5061259;28;20082;-64
2021/12/04 00:12:52;;;;;;;7.85;5.63;;;3.20;99.90;;;;;;5063695;28;20025;-62
2021/12/04 00:15:18;;;;;;;8.68;5.68;;;3.20;99.90;;;;;;5061888;28;20043;-64
2021/12/04 00:17:44;;;;;;;7.25;5.57;;;3.20;99.90;;;;;;5062218;28;20041;-63
2021/12/04 00:20:10;;;;;;;7.30;5.38;;;3.30;99.90;;;;;;5061526;28;20033;-64
2021/12/04 00:22:39;;;;;;;11.98;6.43;;;3.20;99.90;;;;;;5067223;28;20021;-64
2021/12/04 00:25:06;;;;;;;7.70;6.03;;;3.30;99.90;;;;;;5073215;28;20029;-62
2021/12/04 00:27:32;;;;;;;6.85;5.45;;;3.30;99.90;;;;;;5072537;28;20039;-63
2021/12/04 00:29:58;;;;;;;6.47;5.35;;;3.40;99.90;;;;;;5072471;28;20040;-64
2021/12/04 00:32:34;;;;;;;8.07;5.07;;;3.30;99.90;;;;;;5057213;28;20119;-64
2021/12/04 00:35:16;;;;;;;6.35;4.97;;;3.30;99.90;;;;;;5053843;28;20029;-64
2021/12/04 00:51:09;;;;;;;7.90;5.30;;;3.40;99.90;;;;;;5062265;28;20100;-63
2021/12/04 00:53:35;;;;;;;8.23;5.07;;;3.30;99.90;;;;;;5053652;28;20075;-64
2021/12/04 00:56:01;;;;;;;5.85;5.18;;;3.30;99.90;;;;;;5035734;28;20118;-63
2021/12/04 00:58:26;;;;;;;8.68;4.80;;;3.40;99.90;;;;;;5053730;28;20107;-65
2021/12/04 01:00:52;;;;;;;8.60;5.28;;;3.40;99.90;;;;;;5054763;28;20574;-64
2021/12/04 01:03:18;;;;;;;7.30;5.30;;;3.30;99.90;;;;;;5054560;28;20040;-63
2021/12/04 01:05:43;;;;;;;8.52;5.25;;;3.30;99.90;;;;;;5054777;28;20120;-65
2021/12/04 01:08:09;;;;;;;7.57;4.90;;;3.30;99.90;;;;;;5055289;28;20079;-62
2021/12/04 01:10:35;;;;;;;7.95;5.38;;;3.20;99.90;;;;;;5036791;28;20424;-64
2021/12/04 01:13:04;;;;;;;7.60;4.90;;;3.20;99.90;;;;;;5053960;28;20112;-63
2021/12/04 01:15:30;;;;;;;11.60;6.28;;;3.30;99.90;;;;;;5053330;28;20082;-62
2021/12/04 01:17:56;;;;;;;7.57;5.18;;;3.30;99.90;;;;;;5057941;28;20052;-63
2021/12/04 01:20:21;;;;;;;7.65;5.55;;;3.30;99.90;;;;;;5061154;28;20025;-63
2021/12/04 01:22:47;;;;;;;7.63;5.28;;;3.30;99.90;;;;;;5065733;28;20056;-64
2021/12/04 01:25:24;;;;;;;10.88;5.57;;;3.30;99.90;;;;;;5058855;28;20404;-64
2021/12/04 01:27:50;;;;;;;7.78;5.15;;;3.30;99.90;;;;;;5048401;28;20025;-62
2021/12/04 01:33:59;;;;;;;7.45;5.28;;;3.40;99.90;;;;;;5050764;28;20026;-79
2021/12/04 01:36:25;;;;;;;7.50;5.70;;;3.40;99.90;;;;;;5035194;28;20045;-79
2021/12/04 01:38:52;;;;;;;8.93;5.90;;;3.20;99.90;;;;;;5043319;28;20037;-80
2021/12/04 01:41:20;;;;;;;6.80;5.57;;;3.20;99.90;;;;;;5042520;28;20041;-79
2021/12/04 01:43:46;;;;;;;7.03;5.18;;;3.20;99.90;;;;;;5044133;28;20063;-80
2021/12/04 01:46:12;;;;;;;9.27;5.97;;;3.10;99.90;;;;;;5050750;28;20029;-80
2021/12/04 01:48:37;;;;;;;7.38;5.63;;;3.20;99.90;;;;;;5064256;28;20024;-80
2021/12/04 01:51:03;;;;;;;8.95;6.60;;;3.20;99.90;;;;;;5058453;28;20025;-78
2021/12/04 01:53:29;;;;;;;8.85;6.00;;;3.20;99.90;;;;;;5044813;28;20052;-81
2021/12/04 01:55:57;;;;;;;8.57;6.50;;;3.10;99.90;;;;;;5055720;28;20068;-80
2021/12/04 01:58:24;;;;;;;8.52;6.13;;;3.00;99.90;;;;;;5059305;28;20025;-81
2021/12/04 02:00:50;;;;;;;9.35;6.07;;;3.00;99.90;;;;;;5057317;28;20021;-79
2021/12/04 02:03:18;;;;;;;7.90;6.75;;;2.80;99.90;;;;;;5074506;28;20036;-79
2021/12/04 02:05:44;;;;;;;9.35;7.03;;;2.80;99.90;;;;;;5053559;28;20056;-80
2021/12/04 02:08:13;;;;;;;10.98;6.47;;;2.80;99.90;;;;;;5063590;28;20064;-81
2021/12/04 02:10:39;;;;;;;10.32;7.03;;;2.70;99.90;;;;;;5073653;28;20044;-80
2021/12/04 02:13:05;;;;;;;9.00;6.80;;;2.70;99.90;;;;;;5073942;28;20097;-80
2021/12/04 02:15:31;;;;;;;9.25;6.70;;;2.60;99.90;;;;;;5074084;28;20025;-79
2021/12/04 02:17:58;;;;;;;10.45;6.43;;;2.60;99.90;;;;;;5053599;28;20025;-80
2021/12/04 02:20:27;;;;;;;8.73;6.03;;;2.70;99.90;;;;;;5027064;28;20415;-78
2021/12/04 02:22:54;;;;;;;8.77;6.45;;;2.60;99.90;;;;;;5051594;28;20091;-79
2021/12/04 02:25:20;;;;;;;11.07;6.60;;;2.60;99.90;;;;;;5041689;28;20033;-79
2021/12/04 02:27:47;;;;;;;8.65;6.93;;;2.60;99.90;;;;;;5024758;28;20060;-81
2021/12/04 02:30:34;;;;;;;11.70;7.20;;;2.70;99.90;;;;;;5025129;28;20038;-79
2021/12/04 02:33:00;;;;;;;8.27;6.45;;;2.70;99.90;;;;;;5026766;28;20037;-80
2021/12/04 02:35:27;;;;;;;10.13;6.80;;;2.70;99.90;;;;;;5025810;28;20044;-79
2021/12/04 02:37:53;;;;;;;8.65;6.75;;;2.80;99.90;;;;;;5026726;28;20037;-81
2021/12/04 02:40:22;;;;;;;10.07;6.80;;;2.80;99.90;;;;;;5043362;28;20033;-78
2021/12/04 02:42:50;;;;;;;12.63;6.57;;;2.90;99.90;;;;;;5027738;28;20029;-81
2021/12/04 02:45:15;;;;;;;9.55;6.32;;;2.90;99.90;;;;;;5023873;28;20041;-80
2021/12/04 02:47:41;;;;;;;10.40;5.90;;;2.90;99.90;;;;;;5021936;28;20504;-80
2021/12/04 02:50:11;;;;;;;8.40;5.60;;;3.00;99.90;;;;;;5021790;28;20048;-80
2021/12/04 02:52:37;;;;;;;9.20;6.07;;;3.00;99.90;;;;;;5020792;28;20041;-79
2021/12/04 02:55:05;;;;;;;10.23;6.38;;;3.00;99.90;;;;;;5022078;28;20124;-80
2021/12/04 02:57:32;;;;;;;8.07;5.78;;;3.00;99.90;;;;;;5021586;28;20124;-81
2021/12/04 02:59:58;;;;;;;9.32;6.22;;;3.00;99.90;;;;;;5022041;28;20045;-80
2021/12/04 03:02:25;;;;;;;8.18;5.57;;;3.00;99.90;;;;;;5022588;28;20030;-80
2021/12/04 03:04:53;;;;;;;10.50;6.03;;;3.10;99.90;;;;;;5020856;28;20117;-79
2021/12/04 03:07:20;;;;;;;9.55;6.57;;;3.20;99.90;;;;;;5021058;28;20029;-80
2021/12/04 03:09:46;;;;;;;8.50;5.88;;;3.20;99.90;;;;;;5037466;28;20068;-79
2021/12/04 03:12:14;;;;;;;10.23;6.00;;;3.30;99.90;;;;;;5020529;28;20513;-81
2021/12/04 03:14:40;;;;;;;9.75;6.03;;;3.30;99.90;;;;;;5022369;28;20135;-81
2021/12/04 03:17:06;;;;;;;8.48;5.68;;;3.30;99.90;;;;;;5039198;28;20041;-80
2021/12/04 03:19:37;;;;;;;7.57;5.35;;;3.30;99.90;;;;;;5054267;28;20036;-80
2021/12/04 03:22:03;;;;;;;9.40;5.45;;;3.20;99.90;;;;;;5042330;28;20032;-81
2021/12/04 03:24:30;;;;;;;8.55;5.63;;;3.20;99.90;;;;;;5044478;28;20033;-79
2021/12/04 03:26:56;;;;;;;9.10;5.30;;;3.10;99.90;;;;;;5058088;28;20123;-81
2021/12/04 03:29:25;;;;;;;6.50;5.00;;;3.10;99.90;;;;;;5059977;28;20493;-80
2021/12/04 03:40:34;;;;;;;6.65;5.13;;;3.10;99.90;;;;;;5058588;28;20029;-81
2021/12/04 03:42:57;;;;;;;7.00;5.72;;;3.10;99.90;;;;;;5057191;28;20033;-81
2021/12/04 03:45:23;;;;;;;8.63;5.85;;;3.10;99.90;;;;;;5042504;28;20170;-80
2021/12/04 03:47:52;;;;;;;7.70;5.43;;;3.10;99.90;;;;;;5046083;28;20178;-79
2021/12/04 03:50:17;;;;;;;8.13;5.47;;;3.10;99.90;;;;;;5045126;28;20033;-80
2021/12/04 03:52:43;;;;;;;12.32;6.53;;;3.00;99.90;;;;;;5055370;28;20035;-80
2021/12/04 03:55:10;;;;;;;8.27;6.15;;;2.90;99.90;;;;;;5060316;28;20492;-80
2021/12/04 03:57:36;;;;;;;9.32;7.22;;;2.80;99.90;;;;;;5061490;28;20137;-80
2021/12/04 04:00:04;;;;;;;15.93;8.13;;;2.70;99.90;;;;;;5055559;28;20119;-79
2021/12/04 04:02:30;;;;;;;9.13;6.90;;;2.60;99.90;;;;;;5056284;28;20091;-80
2021/12/04 04:04:55;;;;;;;11.25;7.47;;;2.60;99.90;;;;;;5059273;28;20025;-80
2021/12/04 04:07:22;;;;;;;10.90;7.85;;;2.50;99.90;;;;;;5081517;28;20124;-81
2021/12/04 04:09:48;;;;;;;11.98;7.35;;;2.50;99.90;;;;;;5071540;28;20035;-81
2021/12/04 04:12:13;;;;;;;10.73;7.57;;;2.40;99.90;;;;;;5063907;28;20106;-80
2021/12/04 04:14:39;;;;;;;10.77;8.23;;;2.30;99.90;;;;;;5066579;28;20062;-82
2021/12/04 04:17:05;;;;;;;10.77;7.68;;;2.20;99.90;;;;;;5066074;28;20492;-81
2021/12/04 04:19:31;;;;;;;10.65;8.52;;;2.10;99.90;;;;;;5080157;28;20496;-80
2021/12/04 04:21:58;;;;;;;14.32;8.52;;;2.10;99.90;;;;;;5057100;28;20061;-80
2021/12/04 04:24:28;;;;;;;12.23;8.45;;;2.10;99.90;;;;;;5053901;28;20021;-81
2021/12/04 04:26:54;;;;;;;12.55;8.95;;;2.10;99.90;;;;;;5040299;28;20025;-81
2021/12/04 04:29:20;;;;;;;13.77;9.15;;;2.10;99.90;;;;;;5061648;28;20044;-79
2021/12/04 04:31:47;;;;;;;14.23;9.18;;;2.10;99.90;;;;;;5061526;28;20041;-80
2021/12/04 04:34:27;;;;;;;12.93;9.32;;;2.00;99.90;;;;;;5061593;28;20021;-81
2021/12/04 05:12:47;;;;;;;11.53;8.90;;;2.20;99.90;;;;;;5063454;28;20048;-79
2021/12/04 05:14:45;;;;;;;18.35;11.70;;;2.20;99.90;;;;;;5044522;28;20432;-79
2021/12/04 05:17:14;;;;;;;17.50;11.93;;;2.30;99.90;;;;;;5043587;28;20030;-80
2021/12/04 05:22:08;;;;;;;11.02;9.30;;;2.30;99.90;;;;;;5043726;28;20037;-81
2021/12/04 05:24:34;;;;;;;17.75;13.10;;;2.30;99.90;;;;;;5060593;28;20055;-80
2021/12/04 05:27:00;;;;;;;13.90;10.55;;;2.40;99.90;;;;;;5059883;28;20040;-80
2021/12/04 05:29:25;;;;;;;14.07;10.65;;;2.30;99.90;;;;;;5044728;28;20033;-81
2021/12/04 05:31:51;;;;;;;14.38;10.90;;;2.40;99.90;;;;;;5060765;28;20033;-80
2021/12/04 05:34:17;;;;;;;12.32;10.63;;;2.40;99.90;;;;;;5028082;28;20033;-79
2021/12/04 05:36:43;;;;;;;14.82;11.60;;;2.30;99.90;;;;;;5029561;28;20035;-81
2021/12/04 05:39:10;;;;;;;20.83;14.27;;;2.30;99.90;;;;;;5062766;28;20040;-80
2021/12/04 05:41:39;;;;;;;20.73;15.52;;;2.20;99.90;;;;;;5044844;28;20040;-81
2021/12/04 05:44:08;;;;;;;15.52;11.98;;;2.20;99.90;;;;;;5045765;28;20025;-81
2021/12/04 05:46:41;;;;;;;17.65;12.70;;;2.30;99.90;;;;;;5045043;28;20528;-81
2021/12/04 05:56:57;;;;;;;16.05;12.85;;;2.40;99.90;;;;;;5062775;28;20025;-81
2021/12/04 05:59:23;;;;;;;17.83;12.50;;;2.40;99.90;;;;;;5061413;28;20025;-81
2021/12/04 06:01:49;;;;;;;17.70;13.05;;;2.40;99.90;;;;;;5059363;28;20088;-82
2021/12/04 06:04:15;;;;;;;16.65;13.00;;;2.40;99.90;;;;;;5069189;28;20052;-81
2021/12/04 06:06:40;;;;;;;16.77;13.30;;;2.40;99.90;;;;;;5048292;28;20029;-82
2021/12/04 06:09:06;;;;;;;15.50;12.90;;;2.40;99.90;;;;;;5049879;28;20032;-80
2021/12/04 06:11:33;;;;;;;17.15;13.60;;;2.40;99.90;;;;;;5028716;28;20029;-82
2021/12/04 06:13:59;;;;;;;17.15;13.35;;;2.30;99.90;;;;;;5046082;28;20033;-82
2021/12/04 06:16:24;;;;;;;21.08;14.18;;;2.30;99.90;;;;;;5050976;28;20109;-82
2021/12/04 06:18:53;;;;;;;16.70;12.80;;;2.30;99.90;;;;;;5036963;28;20115;-82
2021/12/04 06:24:05;;;;;;;19.92;15.43;;;2.30;99.90;;;;;;5062359;28;20029;-82
2021/12/04 06:26:31;;;;;;;22.25;15.10;;;2.30;99.90;;;;;;5055917;28;20048;-82
2021/12/04 06:29:01;;;;;;;22.27;16.40;;;2.30;99.90;;;;;;5055627;28;20029;-81
2021/12/04 06:31:27;;;;;;;26.23;16.40;;;2.30;99.90;;;;;;5058616;28;20110;-81
2021/12/04 06:33:53;;;;;;;21.58;15.65;;;2.40;99.90;;;;;;5064976;28;20033;-82
2021/12/04 06:36:21;;;;;;;19.25;14.32;;;2.50;99.90;;;;;;5063002;28;20036;-80
2021/12/04 06:38:48;;;;;;;21.83;15.63;;;2.60;99.90;;;;;;5062580;28;20032;-81
2021/12/04 06:41:14;;;;;;;24.30;16.60;;;2.50;99.90;;;;;;5063507;28;20037;-82
2021/12/04 06:43:44;;;;;;;22.95;16.90;;;2.50;99.90;;;;;;5045293;28;20033;-81
2021/12/04 06:46:09;;;;;;;20.63;15.30;;;2.40;99.90;;;;;;5058727;28;20025;-82
2021/12/04 06:48:39;;;;;;;21.90;16.63;;;2.50;99.90;;;;;;5037583;28;20056;-82
2021/12/04 06:51:32;;;;;;;20.50;15.93;;;2.50;99.90;;;;;;5062299;28;20029;-83
2021/12/04 06:53:58;;;;;;;21.80;17.35;;;2.50;99.90;;;;;;5062036;28;20033;-81
2021/12/04 06:56:31;;;;;;;25.85;17.55;;;2.50;99.90;;;;;;5063524;28;20029;-83
2021/12/04 06:58:56;;;;;;;23.38;18.10;;;2.50;99.90;;;;;;5062744;28;20029;-81
2021/12/04 07:01:22;;;;;;;24.60;18.23;;;2.50;99.90;;;;;;5038289;28;20119;-82
2021/12/04 07:03:48;;;;;;;22.23;17.75;;;2.60;99.90;;;;;;5041319;28;20125;-82
2021/12/04 07:06:14;;;;;;;24.83;18.08;;;2.50;99.90;;;;;;5060464;28;20036;-81
2021/12/04 07:08:39;;;;;;;20.13;16.85;;;2.50;99.90;;;;;;5060077;28;20077;-81
2021/12/04 07:11:06;;;;;;;18.98;15.55;;;2.60;99.90;;;;;;5046401;28;20033;-79
2021/12/04 07:13:33;;;;;;;20.77;14.63;;;2.50;99.90;;;;;;5049512;28;20036;-80
2021/12/04 07:16:04;;;;;;;17.52;14.65;;;2.50;99.90;;;;;;5028231;28;20036;-80
2021/12/04 07:18:31;;;;;;;20.23;14.90;;;2.60;99.90;;;;;;5040493;28;20057;-82
2021/12/04 07:20:56;;;;;;;22.35;17.20;;;2.60;99.90;;;;;;5026234;28;20033;-82
2021/12/04 07:23:22;;;;;;;20.15;15.20;;;2.50;99.90;;;;;;5033379;28;20029;-80
2021/12/04 07:25:48;;;;;;;20.83;15.77;;;2.60;99.90;;;;;;5032933;28;20029;-83
2021/12/04 07:28:14;;;;;;;21.35;15.13;;;2.50;99.90;;;;;;5058292;28;20041;-82
2021/12/04 07:30:40;;;;;;;19.13;15.38;;;2.60;99.90;;;;;;5047989;28;20109;-81
2021/12/04 07:33:05;;;;;;;21.73;15.70;;;2.60;99.90;;;;;;5038661;28;20021;-81
2021/12/04 07:35:31;;;;;;;21.40;16.02;;;2.60;99.90;;;;;;5057612;28;20037;-80
2021/12/04 07:37:56;;;;;;;20.05;16.17;;;2.50;99.90;;;;;;5065094;28;20029;-81
2021/12/04 07:40:24;;;;;;;20.40;16.25;;;2.50;99.90;;;;;;5055228;28;20045;-80
2021/12/04 07:42:49;;;;;;;21.10;16.08;;;2.60;99.90;;;;;;5050949;28;20029;-82
2021/12/04 07:45:15;;;;;;;21.13;15.93;;;2.50;99.90;;;;;;5066482;28;20048;-80
2021/12/04 07:47:41;;;;;;;20.17;15.90;;;2.50;99.90;;;;;;5064404;28;20037;-82
2021/12/04 07:50:09;;;;;;;22.85;16.60;;;2.50;99.90;;;;;;5028622;28;20063;-82
2021/12/04 07:52:37;;;;;;;23.35;16.92;;;2.60;99.90;;;;;;5044335;28;20033;-84
2021/12/04 07:55:03;;;;;;;22.80;17.10;;;2.50;99.90;;;;;;5045313;28;20033;-81
2021/12/04 07:57:29;;;;;;;23.40;17.50;;;2.60;99.90;;;;;;5063767;28;20037;-81
2021/12/04 07:59:54;;;;;;;25.50;17.58;;;2.50;99.90;;;;;;5047702;28;20033;-82
2021/12/04 08:02:20;;;;;;;22.17;17.45;;;2.60;99.90;;;;;;5053320;28;20063;-81
2021/12/04 08:04:46;;;;;;;23.90;17.73;;;2.60;99.90;;;;;;5049898;28;20033;-81
2021/12/04 08:07:14;;;;;;;25.20;17.45;;;2.60;99.90;;;;;;5052821;28;20056;-82
2021/12/04 08:09:40;;;;;;;25.00;17.85;;;2.70;99.90;;;;;;5060351;28;20076;-81
2021/12/04 08:12:07;;;;;;;26.10;18.13;;;2.60;99.90;;;;;;5069478;28;20041;-80
2021/12/04 08:14:32;;;;;;;23.67;17.75;;;2.70;99.90;;;;;;5046170;28;20026;-83
2021/12/04 08:16:58;;;;;;;24.30;18.67;;;2.70;99.90;;;;;;5061837;28;20058;-80
2021/12/04 08:19:24;;;;;;;19.80;15.55;;;2.60;99.90;;;;;;5057209;28;20132;-82
2021/12/04 08:21:49;;;;;;;21.90;15.93;;;2.60;99.90;;;;;;5031582;28;20032;-80
2021/12/04 08:24:15;;;;;;;20.75;15.48;;;2.60;99.90;;;;;;5041245;28;20040;-81
2021/12/04 08:26:41;;;;;;;22.33;17.17;;;2.60;99.90;;;;;;5044009;28;20040;-80
2021/12/04 08:29:07;;;;;;;23.63;16.65;;;2.60;99.90;;;;;;5043655;28;20039;-80
2021/12/04 08:31:37;;;;;;;26.35;17.02;;;2.50;99.90;;;;;;5037326;28;20124;-79
2021/12/04 08:34:03;;;;;;;26.65;18.65;;;2.50;99.90;;;;;;5044680;28;20041;-79
2021/12/04 08:36:29;;;;;;;25.02;18.45;;;2.60;99.90;;;;;;5064726;28;20043;-81
2021/12/04 08:38:55;;;;;;;26.98;20.75;;;2.70;99.90;;;;;;5046506;28;20044;-80
2021/12/04 08:41:21;;;;;;;31.52;23.55;;;2.70;99.90;;;;;;5045944;28;20033;-79
2021/12/04 08:43:47;;;;;;;26.38;18.65;;;2.80;99.90;;;;;;5046676;28;20377;-81
2021/12/04 08:46:16;;;;;;;23.48;16.80;;;2.90;99.90;;;;;;5059444;28;20086;-80
2021/12/04 08:48:42;;;;;;;25.60;18.17;;;2.80;99.90;;;;;;5066507;28;20070;-82
2021/12/04 08:51:08;;;;;;;24.25;17.17;;;2.80;99.90;;;;;;5049112;28;20079;-81
2021/12/04 08:53:33;;;;;;;26.70;16.45;;;2.90;99.90;;;;;;5063971;28;20044;-82
2021/12/04 08:55:59;;;;;;;20.55;15.18;;;3.00;99.90;;;;;;5050779;28;20033;-81
2021/12/04 08:58:25;;;;;;;22.65;15.52;;;3.00;99.90;;;;;;5049549;28;20069;-81
2021/12/04 09:00:59;;;;;;;23.52;16.33;;;3.10;99.90;;;;;;5065813;28;20032;-81
2021/12/04 09:03:31;;;;;;;26.08;17.08;;;3.10;99.90;;;;;;5048230;28;20032;-80
2021/12/04 09:05:57;;;;;;;25.08;19.13;;;3.20;99.90;;;;;;5048507;28;20051;-82
2021/12/04 09:08:24;;;;;;;30.48;21.52;;;3.20;99.90;;;;;;5065129;28;20075;-81
2021/12/04 09:10:52;;;;;;;25.05;17.95;;;3.20;99.90;;;;;;5066152;28;20033;-80
2021/12/04 09:13:19;;;;;;;23.55;18.17;;;3.30;99.90;;;;;;5047178;28;20104;-81
2021/12/04 09:15:46;;;;;;;24.45;17.75;;;3.40;99.90;;;;;;5048606;28;20080;-80
2021/12/04 09:18:12;;;;;;;24.25;16.90;;;3.40;99.90;;;;;;5077979;28;20091;-81
2021/12/04 09:20:37;;;;;;;29.02;23.02;;;3.50;99.90;;;;;;5064013;28;20041;-81
2021/12/04 09:23:07;;;;;;;21.05;16.38;;;3.50;99.90;;;;;;5050549;28;20029;-80
2021/12/04 09:25:34;;;;;;;20.02;15.57;;;3.50;99.90;;;;;;5067732;28;20033;-82
2021/12/04 10:00:10;;;;;;;18.10;14.48;;;4.50;99.90;;;;;;5073119;28;20093;-81
2021/12/04 10:03:00;;;;;;;17.70;14.02;;;4.30;99.90;;;;;;5046424;28;20035;-81
2021/12/04 10:22:11;;;;;;;18.27;14.10;;;3.90;99.90;;;;;;5064936;28;20039;-80
2021/12/04 10:32:23;;;;;;;18.27;13.45;;;4.00;99.90;;;;;;5065930;28;20025;-81
2021/12/04 10:33:18;;;;;;;22.17;15.18;;;4.10;99.90;;;;;;5053248;28;20049;-81
2021/12/04 10:35:46;;;;;;;19.80;15.20;;;4.10;99.90;;;;;;5050228;28;20055;-80
2021/12/04 10:38:21;;;;;;;15.93;12.15;;;4.20;99.90;;;;;;5034521;28;20047;-81
2021/12/04 10:40:49;;;;;;;18.63;14.05;;;4.60;99.90;;;;;;5048273;28;20033;-82
2021/12/04 10:43:36;;;;;;;16.40;13.52;;;5.10;99.90;;;;;;5047832;28;20170;-80
2021/12/04 10:46:15;;;;;;;18.02;12.88;;;5.40;99.90;;;;;;5032360;28;20025;-81
2021/12/04 10:48:50;;;;;;;16.65;12.77;;;5.40;99.90;;;;;;5031883;28;20033;-81
2021/12/04 10:53:55;;;;;;;15.32;12.05;;;5.00;99.90;;;;;;5062057;28;20029;-80
2021/12/04 10:56:35;;;;;;;21.95;15.85;;;4.70;99.90;;;;;;5043845;28;20029;-80
2021/12/04 11:04:10;;;;;;;20.23;14.65;;;4.50;99.90;;;;;;5040581;28;20057;-81
2021/12/04 11:06:57;;;;;;;21.10;14.30;;;4.60;99.90;;;;;;5036528;28;20024;-84
2021/12/04 11:42:59;;;;;;;15.52;11.75;;;4.40;99.90;;;;;;5031797;28;20508;-82
2021/12/04 11:45:31;;;;;;;14.30;12.10;;;4.50;99.90;;;;;;5049157;28;20021;-80
2021/12/04 11:48:00;;;;;;;17.10;12.35;;;4.60;99.90;;;;;;5034710;28;20041;-79
2021/12/04 11:50:30;;;;;;;18.15;12.77;;;4.60;99.90;;;;;;5050926;28;20104;-80
2021/12/04 11:53:05;;;;;;;14.48;11.57;;;4.50;99.90;;;;;;5040556;28;20044;-80
2021/12/04 11:55:39;;;;;;;32.35;20.00;;;4.60;99.90;;;;;;5034983;28;20029;-81
2021/12/04 11:58:20;;;;;;;24.27;15.35;;;4.70;99.90;;;;;;5029879;28;20064;-82
2021/12/04 12:00:52;;;;;;;17.27;13.32;;;4.80;99.90;;;;;;5032071;28;20033;-83
2021/12/04 12:03:28;;;;;;;23.15;14.45;;;4.90;99.90;;;;;;5023688;28;20029;-84
2021/12/04 12:05:56;;;;;;;17.08;11.60;;;4.90;99.90;;;;;;5025670;28;20061;-83
2021/12/04 12:08:27;;;;;;;14.98;11.32;;;5.10;99.90;;;;;;5035561;28;20477;-83
2021/12/04 12:11:04;;;;;;;12.90;10.27;;;5.30;99.90;;;;;;5038989;28;20036;-81
2021/12/04 12:13:44;;;;;;;13.25;11.07;;;5.40;99.90;;;;;;5060799;28;20017;-83
2021/12/04 12:16:23;;;;;;;15.63;11.20;;;5.40;99.90;;;;;;5039200;28;20048;-81
2021/12/04 12:18:57;;;;;;;17.08;12.90;;;5.40;99.90;;;;;;5028390;28;20100;-81
2021/12/04 12:21:39;;;;;;;13.52;11.07;;;5.50;99.90;;;;;;5049632;28;20052;-81
2021/12/04 12:38:35;;;;;;;14.55;10.38;;;5.60;99.90;;;;;;5064506;28;20076;-80
2021/12/04 12:41:12;;;;;;;14.93;10.55;;;5.40;99.90;;;;;;5063735;28;20390;-81
2021/12/04 12:43:43;;;;;;;10.95;9.27;;;5.40;99.90;;;;;;5038006;28;20029;-82
2021/12/04 12:46:09;;;;;;;12.20;9.70;;;5.30;99.90;;;;;;5053828;28;20041;-80
2021/12/04 12:48:51;;;;;;;12.48;9.77;;;5.30;99.90;;;;;;5054516;28;20025;-82
2021/12/04 12:51:29;;;;;;;12.70;10.50;;;5.30;99.90;;;;;;5042147;28;20033;-81
2021/12/04 12:53:56;;;;;;;11.88;10.07;;;5.30;99.90;;;;;;5032932;28;20105;-83
2021/12/04 12:56:26;;;;;;;12.15;9.73;;;5.40;99.90;;;;;;5025308;28;20037;-82
2021/12/04 12:58:59;;;;;;;12.00;10.18;;;5.40;99.90;;;;;;5038979;28;20089;-83
2021/12/04 13:12:56;;;;;;;12.45;9.77;;;5.30;99.90;;;;;;5046405;28;20473;-83
2021/12/04 13:15:36;;;;;;;11.77;10.00;;;5.20;99.90;;;;;;5036649;28;20037;-83
2021/12/04 13:18:16;;;;;;;11.85;10.52;;;5.10;99.90;;;;;;5028363;28;20057;-82
2021/12/04 13:21:03;;;;;;;12.43;9.82;;;5.10;99.90;;;;;;5036099;28;20120;-81
2021/12/04 13:23:29;;;;;;;13.43;10.70;;;5.10;99.90;;;;;;5056530;28;20056;-82
2021/12/04 13:26:00;;;;;;;12.73;10.75;;;5.10;99.90;;;;;;5045882;28;20048;-84
2021/12/04 13:28:28;;;;;;;13.13;10.30;;;5.00;99.90;;;;;;5037714;28;20016;-82
2021/12/04 13:31:00;;;;;;;13.25;10.48;;;5.00;99.90;;;;;;5044785;28;20060;-81
2021/12/04 13:33:36;;;;;;;12.20;10.15;;;5.10;99.90;;;;;;5066116;28;20033;-83
2021/12/04 13:36:04;;;;;;;14.73;10.63;;;5.00;99.90;;;;;;5049568;28;20095;-82
2021/12/04 13:38:29;;;;;;;13.25;9.98;;;4.90;99.90;;;;;;5049267;28;20096;-82
2021/12/04 13:40:56;;;;;;;12.95;9.85;;;4.90;99.90;;;;;;5046613;28;20197;-82
2021/12/04 13:43:23;;;;;;;13.77;11.65;;;4.90;99.90;;;;;;5045783;28;20025;-82
2021/12/04 13:46:06;;;;;;;12.18;10.35;;;4.90;99.90;;;;;;5064564;28;20017;-83
2021/12/04 13:48:38;;;;;;;11.63;9.75;;;4.90;99.90;;;;;;5047269;28;20036;-83
2021/12/04 13:51:06;;;;;;;10.63;9.52;;;4.80;99.90;;;;;;5044785;28;20037;-81
2021/12/04 13:53:41;;;;;;;12.65;10.32;;;4.80;99.90;;;;;;5043136;28;20041;-81
2021/12/04 13:56:22;;;;;;;12.68;10.73;;;4.80;99.90;;;;;;5048476;28;20025;-84
2021/12/04 13:59:22;;;;;;;;;;;;;;;;;;;;;
2021/12/04 14:01:48;;;;;;;12.40;10.38;;;4.80;99.90;;;;;;5062222;28;20025;-82
2021/12/04 14:04:17;;;;;;;13.40;10.93;;;4.70;99.90;;;;;;5045892;28;20023;-83
2021/12/04 14:06:55;;;;;;;14.77;11.13;;;4.60;99.90;;;;;;5045798;28;20112;-82
2021/12/04 14:09:23;;;;;;;12.77;10.30;;;4.60;99.90;;;;;;5063734;28;20079;-81
2021/12/04 14:11:51;;;;;;;13.98;10.98;;;4.50;99.90;;;;;;5045303;28;20044;-81
2021/12/04 14:14:23;;;;;;;11.90;10.23;;;4.40;99.90;;;;;;5042837;28;20032;-83
2021/12/04 14:16:51;;;;;;;13.07;10.70;;;4.40;99.90;;;;;;5044239;28;20032;-83
2021/12/04 14:19:23;;;;;;;14.50;11.35;;;4.40;99.90;;;;;;5044810;28;20025;-82
2021/12/04 14:21:58;;;;;;;14.60;11.43;;;4.40;99.90;;;;;;5030245;28;20044;-81
2021/12/04 14:24:26;;;;;;;14.55;11.73;;;4.40;99.90;;;;;;5046545;28;20477;-82
2021/12/04 14:26:57;;;;;;;15.52;11.63;;;4.40;99.90;;;;;;5045994;28;20033;-82
2021/12/04 14:29:25;;;;;;;16.00;11.57;;;4.30;99.90;;;;;;5049410;28;20028;-82
2021/12/04 14:31:53;;;;;;;15.15;11.90;;;4.30;99.90;;;;;;5047048;28;20041;-82
2021/12/04 14:34:23;;;;;;;20.55;11.38;;;4.30;99.90;;;;;;5045718;28;20097;-80
2021/12/04 14:37:11;;;;;;;14.15;12.07;;;4.20;99.90;;;;;;5013865;28;20034;-81
2021/12/04 14:39:43;;;;;;;15.18;12.38;;;4.20;99.90;;;;;;5045376;28;20036;-81
2021/12/04 14:42:12;;;;;;;17.92;13.02;;;4.20;99.90;;;;;;5049499;28;20127;-82
2021/12/04 14:44:39;;;;;;;18.83;13.10;;;4.10;99.90;;;;;;5041893;28;20128;-80
2021/12/04 14:47:10;;;;;;;19.13;12.88;;;4.10;99.90;;;;;;5038280;28;20025;-82
2021/12/04 14:49:38;;;;;;;17.52;14.38;;;4.00;99.90;;;;;;5051704;28;20032;-81
2021/12/04 14:52:04;;;;;;;18.17;13.73;;;4.00;99.90;;;;;;5050420;28;20021;-81
2021/12/04 14:54:32;;;;;;;16.52;14.05;;;4.00;99.90;;;;;;5029512;28;20048;-80
2021/12/04 14:57:01;;;;;;;19.15;12.82;;;4.00;99.90;;;;;;5042967;28;20033;-81
2021/12/04 14:59:32;;;;;;;15.02;12.90;;;4.00;99.90;;;;;;5043311;28;20033;-80
2021/12/04 15:01:58;;;;;;;16.75;13.77;;;4.00;99.90;;;;;;5043382;28;20036;-81
2021/12/04 15:04:24;;;;;;;15.00;12.35;;;3.90;99.90;;;;;;5044692;28;20029;-82
2021/12/04 15:06:49;;;;;;;15.43;12.98;;;4.00;99.90;;;;;;5030213;28;20033;-82
2021/12/04 15:09:16;;;;;;;20.80;13.07;;;3.90;99.90;;;;;;5046635;28;20024;-82
2021/12/04 15:11:50;;;;;;;16.83;12.75;;;3.80;99.90;;;;;;5046507;28;20417;-80
2021/12/04 15:14:21;;;;;;;14.07;12.53;;;3.80;99.90;;;;;;5048224;28;20162;-82
2021/12/04 15:16:54;;;;;;;13.20;11.40;;;3.90;99.90;;;;;;5049712;28;20336;-83
2021/12/04 15:19:53;;;;;;;17.98;13.00;;;3.90;99.90;;;;;;5068371;28;20025;-83
2021/12/04 15:22:35;;;;;;;15.77;12.97;;;3.90;99.90;;;;;;5071821;28;20080;-81
2021/12/04 15:25:21;;;;;;;17.60;12.43;;;3.80;99.90;;;;;;5041997;28;20135;-80
2021/12/04 15:27:46;;;;;;;14.73;12.45;;;3.80;99.90;;;;;;5057345;28;20059;-81
2021/12/04 15:30:17;;;;;;;17.00;13.43;;;3.80;99.90;;;;;;5058991;28;20084;-80
2021/12/04 15:32:43;;;;;;;18.13;14.73;;;3.80;99.90;;;;;;5052456;28;20021;-82
2021/12/04 15:35:34;;;;;;;18.20;12.43;;;3.80;99.90;;;;;;5039315;28;20033;-80
2021/12/04 15:38:09;;;;;;;17.20;13.88;;;3.70;99.90;;;;;;5059344;28;20013;-80
2021/12/04 15:43:43;;;;;;;18.45;13.32;;;3.70;99.90;;;;;;5040625;28;20052;-82
2021/12/04 15:54:17;;;;;;;15.50;12.20;;;3.80;99.90;;;;;;5053985;28;20104;-81
2021/12/04 15:56:49;;;;;;;16.90;13.02;;;3.80;99.90;;;;;;5050690;28;20031;-82
2021/12/04 15:59:21;;;;;;;34.70;21.08;;;3.90;99.90;;;;;;5050781;28;20033;-79
2021/12/04 16:01:50;;;;;;;16.63;13.30;;;3.80;99.90;;;;;;5047125;28;20047;-82
2021/12/04 16:04:27;;;;;;;15.45;11.95;;;3.80;99.90;;;;;;5029634;28;20033;-81
2021/12/04 16:06:53;;;;;;;17.40;13.18;;;3.80;99.90;;;;;;5045050;28;20025;-80
2021/12/04 16:09:38;;;;;;;17.70;13.68;;;3.70;99.90;;;;;;5045186;28;20024;-83
2021/12/04 16:12:15;;;;;;;16.20;12.75;;;3.70;99.90;;;;;;5044984;28;20032;-82
2021/12/04 16:14:52;;;;;;;17.83;13.75;;;3.70;99.90;;;;;;5033877;28;20021;-79
2021/12/04 16:17:20;;;;;;;15.93;12.85;;;3.70;99.90;;;;;;5045365;28;20083;-81
2021/12/04 16:19:50;;;;;;;16.70;13.30;;;3.70;99.90;;;;;;5044623;28;20032;-81